METAR rapporter

 

EKCH - Copenhagen/Kastr, Denmark
Afstand til vejrstation: SØ 11km
Opdateret: 24/07/2019 06:20
Få skyer
Få skyer
 Vind retning ØNØ
Vind: ØNØ 2 km/h
Temperatur: 19°C
Dugpunkt: 18°C
Fugtighed: 94%
Barometer: 1019 hPa
Skyer: Få skyer
Sigtbarhed: 8 km
Sky detaljer: Få skyer 183 m
2019/07/24 04:20 EKCH 240420Z AUTO 06001KT 8000 FEW006/// 19/18 Q1019 NOSIG
EKRK - Copenhagen/Roski, Denmark
Afstand til vejrstation: VSV 29km
Opdateret: 24/07/2019 06:20
Klart
Klart
 Vind retning SØ
Vind: SØ 4 km/h
Temperatur: 17°C
Dugpunkt: 16°C
Fugtighed: 94%
Barometer: 1019 hPa
Skyer: Klart
Sigtbarhed: 10 km
2019/07/24 04:20 EKRK 240420Z AUTO 14002KT 9999 NCD 17/16 Q1019